createdAt,value
2023-02-04T00:00:14.705Z,6.70
2023-02-04T00:02:42.278Z,7.30
2023-02-04T00:05:10.464Z,7.47
2023-02-04T00:07:37.725Z,6.47
2023-02-04T00:10:06.710Z,6.60
2023-02-04T00:12:34.588Z,6.00
2023-02-04T00:15:01.824Z,6.40
2023-02-04T00:17:28.692Z,6.87
2023-02-04T00:19:55.588Z,6.70
2023-02-04T00:22:22.916Z,6.83
2023-02-04T00:24:50.694Z,7.47
2023-02-04T00:27:17.905Z,6.57
2023-02-04T00:29:44.760Z,7.33
2023-02-04T00:32:11.886Z,5.33
2023-02-04T00:34:39.196Z,7.30
2023-02-04T00:37:06.042Z,5.00
2023-02-04T00:39:33.049Z,6.10
2023-02-04T00:41:59.896Z,6.93
2023-02-04T00:44:26.782Z,6.63
2023-02-04T00:46:53.598Z,5.57
2023-02-04T00:49:20.465Z,6.40
2023-02-04T00:51:47.391Z,6.67
2023-02-04T00:54:17.414Z,6.40
2023-02-04T00:56:44.935Z,5.37
2023-02-04T00:59:11.838Z,5.77
2023-02-04T01:01:39.124Z,6.57
2023-02-04T01:04:06.120Z,6.90
2023-02-04T01:06:33.054Z,6.60
2023-02-04T01:09:00.118Z,5.67
2023-02-04T01:11:27.495Z,6.20
2023-02-04T01:13:54.769Z,6.00
2023-02-04T01:16:21.680Z,6.53
2023-02-04T01:18:48.795Z,6.90
2023-02-04T01:21:15.655Z,5.50
2023-02-04T01:23:42.501Z,7.30
2023-02-04T01:26:09.411Z,5.80
2023-02-04T01:28:36.271Z,7.10
2023-02-04T01:31:03.722Z,5.20
2023-02-04T01:33:30.864Z,6.43
2023-02-04T01:35:57.745Z,7.10
2023-02-04T01:38:24.796Z,6.40
2023-02-04T01:40:52.128Z,4.73
2023-02-04T01:43:19.426Z,6.10
2023-02-04T01:45:46.616Z,6.33
2023-02-04T01:48:20.212Z,6.30
2023-02-04T01:50:53.056Z,5.20
2023-02-04T01:53:24.983Z,5.10
2023-02-04T01:55:52.864Z,5.90
2023-02-04T01:58:19.916Z,6.80
2023-02-04T02:00:46.921Z,6.23
2023-02-04T02:03:14.028Z,6.10
2023-02-04T02:05:50.500Z,6.50
2023-02-04T02:08:17.764Z,6.70
2023-02-04T02:10:47.176Z,5.40
2023-02-04T02:13:17.812Z,6.00
2023-02-04T02:15:44.826Z,6.07
2023-02-04T02:18:12.308Z,4.67
2023-02-04T02:20:39.409Z,4.77
2023-02-04T02:23:38.167Z,5.67
2023-02-04T02:26:05.234Z,6.60
2023-02-04T02:28:32.116Z,5.40
2023-02-04T02:30:59.359Z,6.83
2023-02-04T02:33:26.668Z,5.93
2023-02-04T02:35:53.703Z,7.00
2023-02-04T02:38:20.988Z,5.13
2023-02-04T02:40:48.829Z,5.63
2023-02-04T02:43:18.513Z,4.40
2023-02-04T02:45:45.769Z,5.40
2023-02-04T02:48:12.812Z,5.30
2023-02-04T02:50:40.602Z,6.23
2023-02-04T02:53:15.768Z,5.10
2023-02-04T02:55:43.585Z,4.03
2023-02-04T02:58:17.130Z,6.73
2023-02-04T03:00:44.505Z,5.13
2023-02-04T03:03:16.579Z,4.80
2023-02-04T03:05:46.603Z,4.97
2023-02-04T03:08:14.983Z,4.40
2023-02-04T03:10:43.355Z,5.20
2023-02-04T03:13:12.325Z,6.07
2023-02-04T03:15:39.629Z,5.50
2023-02-04T03:18:06.998Z,5.50
2023-02-04T03:20:34.647Z,5.17
2023-02-04T03:23:01.643Z,5.47
2023-02-04T03:25:28.980Z,5.23
2023-02-04T03:27:58.221Z,5.80
2023-02-04T03:30:26.912Z,5.17
2023-02-04T03:32:54.644Z,5.20
2023-02-04T03:35:21.645Z,5.40
2023-02-04T03:37:48.531Z,4.87
2023-02-04T03:40:15.904Z,6.60
2023-02-04T03:42:42.832Z,7.47
2023-02-04T03:45:10.074Z,5.87
2023-02-04T03:47:37.197Z,6.67
2023-02-04T03:50:05.015Z,5.37
2023-02-04T03:52:32.039Z,6.10
2023-02-04T03:54:58.990Z,6.50
2023-02-04T03:57:25.866Z,5.07
2023-02-04T03:59:52.711Z,7.70
2023-02-04T04:02:19.556Z,5.53
2023-02-04T04:04:46.437Z,6.70
2023-02-04T04:07:13.329Z,5.03
2023-02-04T04:09:40.192Z,7.03
2023-02-04T04:12:06.995Z,5.30
2023-02-04T04:14:33.894Z,5.63
2023-02-04T04:17:00.804Z,5.83
2023-02-04T04:19:27.850Z,4.60
2023-02-04T04:21:54.697Z,6.43
2023-02-04T04:24:21.537Z,6.13
2023-02-04T04:26:48.355Z,6.57
2023-02-04T04:29:15.268Z,7.33
2023-02-04T04:31:42.563Z,6.10
2023-02-04T04:34:09.468Z,5.90
2023-02-04T04:36:36.410Z,6.30
2023-02-04T04:39:03.975Z,6.30
2023-02-04T04:41:30.833Z,5.53
2023-02-04T04:43:57.655Z,4.73
2023-02-04T04:46:24.542Z,5.63
2023-02-04T04:48:51.380Z,5.00
2023-02-04T04:51:18.383Z,5.97
2023-02-04T04:53:45.270Z,5.60
2023-02-04T04:56:12.131Z,5.50
2023-02-04T04:58:39.029Z,5.80
2023-02-04T05:01:05.963Z,5.27
2023-02-04T05:03:32.840Z,5.53
2023-02-04T05:05:59.716Z,6.03
2023-02-04T05:08:26.553Z,5.80
2023-02-04T05:10:53.460Z,5.73
2023-02-04T05:13:20.359Z,4.90
2023-02-04T05:15:47.236Z,5.63
2023-02-04T05:18:14.126Z,5.30
2023-02-04T05:20:41.015Z,4.73
2023-02-04T05:23:07.856Z,6.70
2023-02-04T05:25:34.712Z,5.20
2023-02-04T05:28:01.662Z,5.30
2023-02-04T05:30:28.957Z,4.83
2023-02-04T05:32:56.326Z,5.23
2023-02-04T05:35:23.253Z,4.93
2023-02-04T05:37:50.126Z,5.20
2023-02-04T05:40:17.211Z,5.43
2023-02-04T05:42:44.087Z,5.47
2023-02-04T05:45:18.953Z,5.97
2023-02-04T05:47:46.197Z,4.70
2023-02-04T05:50:13.381Z,6.83
2023-02-04T05:52:40.588Z,6.13
2023-02-04T05:55:08.655Z,5.70
2023-02-04T05:57:35.582Z,6.20
2023-02-04T06:00:02.700Z,5.80
2023-02-04T06:02:29.656Z,4.33
2023-02-04T06:04:56.560Z,4.57
2023-02-04T06:07:23.414Z,5.70
2023-02-04T06:09:50.277Z,5.70
2023-02-04T06:12:17.312Z,5.10
2023-02-04T06:14:44.155Z,4.50
2023-02-04T06:17:11.120Z,5.27
2023-02-04T06:19:37.961Z,4.60
2023-02-04T06:22:04.856Z,4.40
2023-02-04T06:24:31.722Z,4.17
2023-02-04T06:26:58.542Z,5.60
2023-02-04T06:29:25.664Z,6.13
2023-02-04T06:31:52.783Z,6.37
2023-02-04T06:34:19.698Z,4.67
2023-02-04T06:36:46.610Z,6.77
2023-02-04T06:39:13.524Z,7.07
2023-02-04T06:41:40.344Z,5.83
2023-02-04T06:44:07.177Z,5.20
2023-02-04T06:46:34.260Z,6.13
2023-02-04T06:49:01.113Z,5.10
2023-02-04T06:51:28.245Z,6.30
2023-02-04T06:53:55.145Z,5.77
2023-02-04T06:56:22.043Z,5.97
2023-02-04T06:58:48.875Z,5.30
2023-02-04T07:01:15.807Z,5.90
2023-02-04T07:03:42.673Z,5.40
2023-02-04T07:06:09.513Z,6.77
2023-02-04T07:08:36.678Z,6.80
2023-02-04T07:11:03.606Z,5.40
2023-02-04T07:13:30.504Z,5.83
2023-02-04T07:15:57.469Z,4.90
2023-02-04T07:18:24.399Z,5.63
2023-02-04T07:20:51.375Z,5.53
2023-02-04T07:23:18.246Z,5.90
2023-02-04T07:25:45.164Z,5.97
2023-02-04T07:28:12.210Z,4.97
2023-02-04T07:30:39.621Z,5.60
2023-02-04T07:33:06.908Z,6.30
2023-02-04T07:35:34.317Z,4.60
2023-02-04T07:38:01.261Z,6.00
2023-02-04T07:40:28.207Z,7.17
2023-02-04T07:42:55.191Z,6.70
2023-02-04T07:45:22.047Z,7.17
2023-02-04T07:47:49.005Z,9.00
2023-02-04T07:50:16.440Z,11.60
2023-02-04T07:52:43.315Z,7.53
2023-02-04T07:55:11.546Z,6.67
2023-02-04T07:57:38.438Z,6.13
2023-02-04T08:00:06.074Z,7.33
2023-02-04T08:02:32.964Z,7.20
2023-02-04T08:04:59.984Z,7.83
2023-02-04T08:07:26.876Z,7.13
2023-02-04T08:09:53.936Z,6.90
2023-02-04T08:12:20.865Z,7.80
2023-02-04T08:14:47.865Z,8.20
2023-02-04T08:17:15.172Z,6.87
2023-02-04T08:19:42.886Z,10.03
2023-02-04T08:22:10.746Z,7.13
2023-02-04T08:24:37.774Z,8.37
2023-02-04T08:27:04.987Z,7.03
2023-02-04T08:29:31.949Z,6.53
2023-02-04T08:31:59.870Z,7.90
2023-02-04T08:34:27.105Z,5.97
2023-02-04T08:36:54.366Z,6.67
2023-02-04T08:39:21.382Z,6.53
2023-02-04T08:41:49.345Z,6.40
2023-02-04T08:44:16.259Z,5.33
2023-02-04T08:46:43.207Z,5.83
2023-02-04T08:49:10.097Z,5.53
2023-02-04T08:51:36.957Z,5.90
2023-02-04T08:54:03.969Z,5.97
2023-02-04T08:56:31.330Z,6.63
2023-02-04T08:58:58.230Z,5.07
2023-02-04T09:01:25.273Z,6.10
2023-02-04T09:03:52.282Z,5.73
2023-02-04T09:06:19.355Z,8.50
2023-02-04T09:08:46.204Z,6.87
2023-02-04T09:11:13.110Z,6.23
2023-02-04T09:13:40.016Z,5.03
2023-02-04T09:16:07.244Z,6.67
2023-02-04T09:18:34.766Z,6.67
2023-02-04T09:21:01.671Z,7.00
2023-02-04T09:23:28.657Z,5.60
2023-02-04T09:25:55.587Z,5.50
2023-02-04T09:28:22.579Z,6.30
2023-02-04T09:30:49.881Z,7.10
2023-02-04T09:33:17.389Z,6.40
2023-02-04T09:35:44.751Z,7.47
2023-02-04T09:38:11.648Z,7.77
2023-02-04T09:40:44.552Z,7.37
2023-02-04T09:43:16.663Z,7.00
2023-02-04T09:45:43.574Z,6.13
2023-02-04T09:48:13.252Z,6.70
2023-02-04T09:50:40.274Z,6.93
2023-02-04T09:53:07.994Z,7.93
2023-02-04T09:55:40.515Z,8.00
2023-02-04T09:58:17.476Z,7.57
2023-02-04T10:00:52.223Z,8.30
2023-02-04T10:03:22.357Z,8.10
2023-02-04T10:05:50.509Z,8.27
2023-02-04T10:08:26.740Z,7.50
2023-02-04T10:10:53.796Z,8.50
2023-02-04T10:13:24.716Z,8.80
2023-02-04T10:15:53.069Z,6.90
2023-02-04T10:18:29.050Z,7.50
2023-02-04T10:21:06.752Z,7.83
2023-02-04T10:23:33.597Z,9.23
2023-02-04T10:26:00.485Z,8.00
2023-02-04T10:28:35.158Z,7.20
2023-02-04T10:31:02.562Z,10.60
2023-02-04T10:33:29.866Z,6.77
2023-02-04T10:35:57.247Z,6.57
2023-02-04T10:38:24.634Z,8.00
2023-02-04T10:41:05.748Z,7.43
2023-02-04T10:43:32.871Z,11.23
2023-02-04T10:46:02.651Z,6.90
2023-02-04T10:48:31.098Z,6.30
2023-02-04T10:50:59.302Z,6.60
2023-02-04T10:53:45.301Z,7.10
2023-02-04T10:56:18.839Z,6.57
2023-02-04T10:58:45.933Z,9.10
2023-02-04T11:01:15.730Z,7.47
2023-02-04T11:03:45.360Z,5.77
2023-02-04T11:06:20.431Z,7.50
2023-02-04T11:08:48.428Z,5.50
2023-02-04T11:11:21.339Z,6.17
2023-02-04T11:14:19.047Z,6.77
2023-02-04T11:16:49.445Z,5.73
2023-02-04T11:19:30.340Z,6.30
2023-02-04T11:22:06.506Z,6.80
2023-02-04T11:24:34.352Z,7.30
2023-02-04T11:27:19.268Z,6.83
2023-02-04T11:29:47.951Z,6.40
2023-02-04T11:32:38.671Z,7.97
2023-02-04T11:35:26.074Z,6.40
2023-02-04T11:37:54.547Z,6.00
2023-02-04T11:40:36.876Z,4.70
2023-02-04T11:43:13.561Z,4.90
2023-02-04T11:45:41.376Z,5.70
2023-02-04T11:48:17.749Z,5.23
2023-02-04T11:51:10.275Z,5.10
2023-02-04T11:53:37.080Z,4.60
2023-02-04T11:56:04.186Z,5.60
2023-02-04T11:58:32.144Z,5.17
2023-02-04T12:00:59.395Z,4.53
2023-02-04T12:03:27.320Z,6.30
2023-02-04T12:05:57.401Z,5.07
2023-02-04T12:08:36.890Z,7.10
2023-02-04T12:11:30.634Z,4.30
2023-02-04T12:14:06.220Z,4.43
2023-02-04T12:16:46.144Z,4.90
2023-02-04T12:19:13.788Z,5.20
2023-02-04T12:21:41.190Z,4.93
2023-02-04T12:24:08.292Z,4.50
2023-02-04T12:26:41.130Z,4.50
2023-02-04T12:29:08.532Z,7.83
2023-02-04T12:31:36.250Z,5.60
2023-02-04T12:34:03.531Z,5.30
2023-02-04T12:36:30.553Z,4.20
2023-02-04T12:39:00.666Z,4.97
2023-02-04T12:41:28.458Z,4.93
2023-02-04T12:43:55.818Z,5.33
2023-02-04T12:46:23.507Z,5.10
2023-02-04T12:48:50.607Z,4.67
2023-02-04T12:51:17.650Z,5.33
2023-02-04T12:53:44.588Z,4.70
2023-02-04T12:56:11.494Z,4.90
2023-02-04T12:58:38.483Z,4.70
2023-02-04T13:01:08.416Z,6.50
2023-02-04T13:03:35.557Z,5.20
2023-02-04T13:06:02.575Z,5.23
2023-02-04T13:08:29.453Z,4.27
2023-02-04T13:10:56.366Z,4.50
2023-02-04T13:13:23.512Z,4.43
2023-02-04T13:15:50.577Z,3.87
2023-02-04T13:18:18.598Z,5.10
2023-02-04T13:20:46.439Z,5.33
2023-02-04T13:23:14.152Z,4.43
2023-02-04T13:25:41.071Z,5.57
2023-02-04T13:28:08.132Z,4.70
2023-02-04T13:30:35.407Z,6.40
2023-02-04T13:33:03.826Z,5.17
2023-02-04T13:35:31.600Z,3.73
2023-02-04T13:37:58.644Z,5.70
2023-02-04T13:40:25.566Z,4.53
2023-02-04T13:42:52.389Z,4.60
2023-02-04T13:45:19.499Z,4.40
2023-02-04T13:47:48.105Z,4.67
2023-02-04T13:50:16.574Z,5.27
2023-02-04T13:52:43.654Z,4.33
2023-02-04T13:55:10.747Z,5.17
2023-02-04T13:57:38.026Z,4.83
2023-02-04T14:00:07.291Z,4.93
2023-02-04T14:02:34.647Z,5.70
2023-02-04T14:05:01.872Z,4.60
2023-02-04T14:07:30.588Z,5.10
2023-02-04T14:09:57.499Z,5.73
2023-02-04T14:12:24.356Z,5.70
2023-02-04T14:14:51.348Z,6.07
2023-02-04T14:17:18.255Z,5.23
2023-02-04T14:19:45.123Z,6.23
2023-02-04T14:22:13.367Z,4.80
2023-02-04T14:24:42.662Z,5.90
2023-02-04T14:27:10.729Z,6.10
2023-02-04T14:29:37.701Z,5.53
2023-02-04T14:32:05.337Z,5.73
2023-02-04T14:34:34.328Z,5.50
2023-02-04T14:37:02.555Z,6.50
2023-02-04T14:39:29.459Z,12.10
2023-02-04T14:41:56.336Z,5.60
2023-02-04T14:44:23.238Z,6.17
2023-02-04T14:46:50.407Z,7.20
2023-02-04T14:49:17.813Z,8.57
2023-02-04T14:51:44.818Z,8.27
2023-02-04T14:54:11.677Z,5.10
2023-02-04T14:56:38.742Z,5.70
2023-02-04T14:59:05.874Z,5.37
2023-02-04T15:01:32.880Z,5.43
2023-02-04T15:03:59.874Z,6.50
2023-02-04T15:06:27.278Z,5.20
2023-02-04T15:08:54.456Z,5.87
2023-02-04T15:11:21.784Z,6.20
2023-02-04T15:13:48.720Z,5.50
2023-02-04T15:16:15.750Z,6.87
2023-02-04T15:18:42.942Z,6.70
2023-02-04T15:21:10.208Z,5.80
2023-02-04T15:23:37.312Z,5.50
2023-02-04T15:26:04.337Z,7.23
2023-02-04T15:28:31.520Z,5.90
2023-02-04T15:30:59.215Z,4.90
2023-02-04T15:33:26.888Z,5.40
2023-02-04T15:35:54.094Z,4.80
2023-02-04T15:38:20.998Z,5.27
2023-02-04T15:40:48.190Z,5.33
2023-02-04T15:43:15.201Z,4.60
2023-02-04T15:45:44.010Z,6.57
2023-02-04T15:48:11.071Z,5.70
2023-02-04T15:50:40.551Z,5.07
2023-02-04T15:53:07.479Z,6.70
2023-02-04T15:55:34.568Z,5.30
2023-02-04T15:58:01.578Z,4.43
2023-02-04T16:00:28.599Z,4.50
2023-02-04T16:02:55.609Z,7.07
2023-02-04T16:05:22.637Z,4.93
2023-02-04T16:07:49.706Z,5.03
2023-02-04T16:10:18.388Z,3.90
2023-02-04T16:12:47.455Z,4.50
2023-02-04T16:15:15.149Z,4.90
2023-02-04T16:17:42.091Z,3.80
2023-02-04T16:20:10.699Z,4.53
2023-02-04T16:22:37.668Z,5.27
2023-02-04T16:25:05.461Z,4.43
2023-02-04T16:27:33.816Z,3.50
2023-02-04T16:30:01.017Z,4.60
2023-02-04T16:32:28.743Z,3.60
2023-02-04T16:34:56.983Z,3.93
2023-02-04T16:37:23.921Z,3.93
2023-02-04T16:39:51.652Z,8.30
2023-02-04T16:42:19.111Z,7.30
2023-02-04T16:44:46.097Z,6.27
2023-02-04T16:47:13.130Z,5.00
2023-02-04T16:49:40.299Z,5.07
2023-02-04T16:52:07.259Z,4.90
2023-02-04T16:54:35.179Z,3.83
2023-02-04T16:57:03.459Z,4.40
2023-02-04T16:59:31.233Z,5.07
2023-02-04T17:01:58.450Z,4.57
2023-02-04T17:04:25.571Z,5.53
2023-02-04T17:06:52.818Z,5.27
2023-02-04T17:09:20.115Z,5.90
2023-02-04T17:11:47.260Z,6.60
2023-02-04T17:14:17.577Z,5.47
2023-02-04T17:16:45.280Z,6.00
2023-02-04T17:19:12.899Z,7.47
2023-02-04T17:21:40.564Z,7.10
2023-02-04T17:24:09.265Z,13.23
2023-02-04T17:26:37.752Z,13.10
2023-02-04T17:29:09.736Z,9.70
2023-02-04T17:31:51.304Z,15.40
2023-02-04T17:34:29.380Z,17.47
2023-02-04T17:36:58.214Z,6.90
2023-02-04T17:39:28.215Z,7.10
2023-02-04T17:41:59.030Z,8.20
2023-02-04T17:44:27.726Z,8.73
2023-02-04T17:46:55.342Z,7.57
2023-02-04T17:49:22.826Z,11.53
2023-02-04T17:51:52.951Z,12.10
2023-02-04T17:54:20.165Z,9.67
2023-02-04T17:56:47.362Z,14.07
2023-02-04T17:59:14.418Z,9.50
2023-02-04T18:01:42.699Z,8.20
2023-02-04T18:04:14.143Z,7.07
2023-02-04T18:06:41.269Z,8.50
2023-02-04T18:09:18.032Z,8.77
2023-02-04T18:11:46.000Z,12.73
2023-02-04T18:14:25.708Z,17.00
2023-02-04T18:16:57.845Z,16.50
2023-02-04T18:19:37.028Z,16.57
2023-02-04T18:22:11.710Z,12.10
2023-02-04T18:24:39.939Z,13.73
2023-02-04T18:27:18.079Z,13.37
2023-02-04T18:29:50.542Z,13.23
2023-02-04T18:32:57.127Z,7.70
2023-02-04T18:35:54.790Z,7.60
2023-02-04T18:38:39.770Z,6.30
2023-02-04T18:41:41.423Z,6.70
2023-02-04T18:44:33.023Z,7.40
2023-02-04T18:47:00.928Z,7.57
2023-02-04T18:49:33.937Z,7.30
2023-02-04T18:52:19.363Z,7.57
2023-02-04T18:54:56.810Z,7.57
2023-02-04T18:57:29.303Z,8.30
2023-02-04T19:00:21.941Z,6.57
2023-02-04T19:02:53.065Z,7.90
2023-02-04T19:05:49.773Z,9.13
2023-02-04T19:08:44.531Z,10.50
2023-02-04T19:11:41.013Z,9.13
2023-02-04T19:14:40.071Z,8.53
2023-02-04T19:17:26.558Z,9.93
2023-02-04T19:20:08.466Z,11.40
2023-02-04T19:22:49.733Z,10.10
2023-02-04T19:25:29.688Z,9.80
2023-02-04T19:28:17.630Z,12.67
2023-02-04T19:30:51.825Z,17.30
2023-02-04T19:33:42.670Z,12.10
2023-02-04T19:36:39.957Z,11.40
2023-02-04T19:39:39.459Z,9.43
2023-02-04T19:42:34.541Z,10.43
2023-02-04T19:45:23.063Z,11.70
2023-02-04T19:47:55.218Z,10.60
2023-02-04T19:50:32.126Z,22.97
2023-02-04T19:53:23.243Z,13.87
2023-02-04T19:55:52.193Z,12.07
2023-02-04T19:58:22.504Z,12.63
2023-02-04T20:01:00.966Z,13.00
2023-02-04T20:03:46.456Z,12.93
2023-02-04T20:06:37.590Z,12.67
2023-02-04T20:09:29.673Z,14.63
2023-02-04T20:12:08.585Z,15.30
2023-02-04T20:15:19.153Z,15.40
2023-02-04T20:17:48.138Z,15.03
2023-02-04T20:20:29.477Z,16.60
2023-02-04T20:23:01.122Z,23.13
2023-02-04T20:26:01.190Z,21.50
2023-02-04T20:28:40.053Z,21.60
2023-02-04T20:31:37.097Z,20.43
2023-02-04T20:34:23.491Z,14.83
2023-02-04T20:36:52.293Z,14.83
2023-02-04T20:39:33.114Z,15.13
2023-02-04T20:42:40.031Z,15.80
2023-02-04T20:45:45.448Z,16.47
2023-02-04T20:48:31.445Z,16.97
2023-02-04T20:51:01.364Z,19.97
2023-02-04T20:53:52.842Z,18.93
2023-02-04T20:56:37.476Z,17.53
2023-02-04T20:59:34.699Z,18.60
2023-02-04T21:02:14.684Z,17.67
2023-02-04T21:04:47.239Z,16.80
2023-02-04T21:07:18.352Z,14.70
2023-02-04T21:09:45.299Z,18.30
2023-02-04T21:12:12.428Z,18.40
2023-02-04T21:14:39.972Z,18.47
2023-02-04T21:17:07.871Z,15.50
2023-02-04T21:19:35.418Z,17.27
2023-02-04T21:22:02.621Z,16.70
2023-02-04T21:24:32.019Z,17.23
2023-02-04T21:26:59.141Z,17.40
2023-02-04T21:29:26.351Z,18.83
2023-02-04T21:31:56.780Z,17.53
2023-02-04T21:34:23.935Z,16.97
2023-02-04T21:36:50.868Z,17.63
2023-02-04T21:39:17.926Z,16.50
2023-02-04T21:41:44.888Z,17.03
2023-02-04T21:44:11.984Z,16.90
2023-02-04T21:46:39.033Z,17.63
2023-02-04T21:49:06.013Z,17.67
2023-02-04T21:51:32.925Z,18.70
2023-02-04T21:54:00.947Z,17.10
2023-02-04T21:56:27.965Z,16.90
2023-02-04T21:58:56.455Z,15.83
2023-02-04T22:01:23.420Z,17.30
2023-02-04T22:03:50.487Z,15.80
2023-02-04T22:06:17.484Z,16.80
2023-02-04T22:08:44.380Z,16.03
2023-02-04T22:11:11.480Z,16.80
2023-02-04T22:13:38.368Z,15.57
2023-02-04T22:16:05.605Z,15.23
2023-02-04T22:18:32.561Z,14.97
2023-02-04T22:20:59.562Z,15.67
2023-02-04T22:23:26.500Z,14.10
2023-02-04T22:25:53.398Z,14.33
2023-02-04T22:28:20.375Z,14.13
2023-02-04T22:30:47.845Z,13.63
2023-02-04T22:33:15.276Z,14.00
2023-02-04T22:35:42.265Z,14.10
2023-02-04T22:38:09.259Z,13.77
2023-02-04T22:40:36.236Z,14.37
2023-02-04T22:43:04.813Z,14.03
2023-02-04T22:45:32.047Z,13.60
2023-02-04T22:47:59.129Z,13.30
2023-02-04T22:50:26.021Z,14.30
2023-02-04T22:52:52.963Z,13.60
2023-02-04T22:55:19.962Z,14.40
2023-02-04T22:57:46.828Z,15.00
2023-02-04T23:00:15.732Z,12.80
2023-02-04T23:02:42.667Z,14.50
2023-02-04T23:05:09.739Z,14.00
2023-02-04T23:07:36.971Z,12.60
2023-02-04T23:10:04.330Z,14.03
2023-02-04T23:12:31.329Z,13.43
2023-02-04T23:14:58.322Z,13.07
2023-02-04T23:17:25.261Z,13.80
2023-02-04T23:19:52.478Z,14.37
2023-02-04T23:22:19.424Z,14.00
2023-02-04T23:24:46.568Z,14.73
2023-02-04T23:27:13.582Z,14.10
2023-02-04T23:29:40.695Z,14.30
2023-02-04T23:32:09.175Z,14.80
2023-02-04T23:34:36.685Z,14.00
2023-02-04T23:37:04.041Z,15.27
2023-02-04T23:39:31.151Z,15.50
2023-02-04T23:41:58.034Z,15.70
2023-02-04T23:44:24.974Z,15.30
2023-02-04T23:46:51.918Z,15.87
2023-02-04T23:49:18.879Z,15.33
2023-02-04T23:51:46.181Z,14.80
2023-02-04T23:54:13.299Z,15.80
2023-02-04T23:56:40.349Z,15.70
2023-02-04T23:59:08.378Z,14.60
